createdAt,value
2023-02-17T00:01:14.543Z,12.17
2023-02-17T00:03:43.814Z,13.90
2023-02-17T00:06:12.701Z,11.37
2023-02-17T00:08:40.396Z,12.77
2023-02-17T00:11:08.201Z,11.43
2023-02-17T00:13:35.960Z,8.40
2023-02-17T00:16:08.433Z,10.20
2023-02-17T00:18:36.664Z,10.80
2023-02-17T00:21:15.485Z,16.77
2023-02-17T00:23:43.304Z,10.00
2023-02-17T00:26:10.879Z,8.97
2023-02-17T00:28:39.690Z,10.17
2023-02-17T00:31:08.681Z,10.23
2023-02-17T00:33:36.757Z,12.60
2023-02-17T00:36:07.766Z,9.77
2023-02-17T00:38:36.984Z,9.83
2023-02-17T00:41:05.258Z,10.30
2023-02-17T00:43:33.005Z,9.70
2023-02-17T00:46:01.058Z,7.23
2023-02-17T00:48:28.702Z,7.97
2023-02-17T00:50:56.755Z,8.30
2023-02-17T00:53:24.642Z,10.03
2023-02-17T00:55:53.680Z,7.97
2023-02-17T00:58:21.317Z,11.43
2023-02-17T01:00:49.217Z,11.33
2023-02-17T01:03:17.300Z,8.20
2023-02-17T01:05:46.595Z,7.80
2023-02-17T01:08:17.099Z,9.10
2023-02-17T01:10:47.136Z,7.30
2023-02-17T01:13:17.806Z,7.80
2023-02-17T01:15:49.137Z,4.87
2023-02-17T01:18:18.434Z,8.90
2023-02-17T01:20:47.422Z,10.03
2023-02-17T01:23:15.700Z,10.40
2023-02-17T01:25:46.382Z,8.00
2023-02-17T01:28:18.402Z,7.27
2023-02-17T01:30:48.058Z,6.60
2023-02-17T01:33:16.075Z,7.30
2023-02-17T01:35:44.127Z,7.93
2023-02-17T01:38:13.564Z,5.40
2023-02-17T01:40:47.928Z,5.00
2023-02-17T01:43:18.272Z,6.00
2023-02-17T01:45:51.502Z,5.10
2023-02-17T01:48:22.246Z,4.17
2023-02-17T01:50:54.825Z,4.10
2023-02-17T01:53:26.299Z,5.00
2023-02-17T01:55:55.836Z,5.73
2023-02-17T01:58:26.697Z,5.00
2023-02-17T02:00:57.585Z,3.60
2023-02-17T02:03:25.888Z,3.80
2023-02-17T02:05:53.559Z,4.10
2023-02-17T02:08:21.665Z,4.23
2023-02-17T02:10:49.817Z,6.53
2023-02-17T02:13:18.259Z,3.40
2023-02-17T02:15:52.411Z,4.80
2023-02-17T02:18:32.358Z,5.10
2023-02-17T02:21:28.206Z,3.70
2023-02-17T02:24:17.913Z,3.60
2023-02-17T02:27:16.906Z,5.83
2023-02-17T02:30:20.250Z,4.93
2023-02-17T02:32:58.833Z,3.83
2023-02-17T02:35:35.436Z,4.23
2023-02-17T02:38:11.009Z,4.70
2023-02-17T02:40:44.419Z,7.00
2023-02-17T02:43:15.618Z,3.63
2023-02-17T02:45:44.480Z,4.20
2023-02-17T02:48:14.204Z,3.97
2023-02-17T02:50:58.066Z,4.57
2023-02-17T02:53:58.414Z,7.67
2023-02-17T02:56:42.754Z,6.57
2023-02-17T02:59:22.626Z,3.70
2023-02-17T03:01:59.967Z,5.93
2023-02-17T03:04:36.182Z,5.93
2023-02-17T03:07:10.335Z,7.80
2023-02-17T03:09:38.765Z,4.20
2023-02-17T03:12:07.898Z,4.20
2023-02-17T03:14:39.596Z,4.87
2023-02-17T03:17:07.824Z,4.20
2023-02-17T03:19:37.592Z,3.50
2023-02-17T03:22:10.623Z,3.70
2023-02-17T03:24:38.805Z,3.70
2023-02-17T03:27:09.147Z,7.67
2023-02-17T03:29:37.550Z,6.23
2023-02-17T03:32:06.794Z,4.10
2023-02-17T03:34:34.778Z,3.90
2023-02-17T03:37:04.085Z,5.73
2023-02-17T03:39:31.775Z,4.30
2023-02-17T03:41:59.472Z,4.50
2023-02-17T03:44:27.494Z,4.70
2023-02-17T03:46:55.131Z,3.90
2023-02-17T03:49:23.529Z,4.40
2023-02-17T03:51:51.174Z,5.33
2023-02-17T03:54:21.082Z,4.43
2023-02-17T03:56:48.754Z,3.70
2023-02-17T03:59:16.469Z,5.33
2023-02-17T04:01:44.642Z,4.20
2023-02-17T04:04:12.752Z,3.43
2023-02-17T04:06:40.406Z,4.03
2023-02-17T04:09:08.700Z,4.90
2023-02-17T04:11:37.660Z,4.50
2023-02-17T04:14:05.726Z,6.70
2023-02-17T04:16:33.565Z,6.43
2023-02-17T04:19:01.697Z,4.23
2023-02-17T04:21:29.396Z,4.53
2023-02-17T04:23:57.333Z,6.87
2023-02-17T04:26:25.353Z,4.03
2023-02-17T04:28:54.414Z,5.10
2023-02-17T04:31:22.323Z,3.07
2023-02-17T04:33:50.769Z,4.63
2023-02-17T04:36:18.412Z,4.30
2023-02-17T04:38:46.355Z,7.23
2023-02-17T04:41:13.949Z,6.80
2023-02-17T04:43:42.145Z,4.97
2023-02-17T04:46:11.854Z,5.90
2023-02-17T04:48:40.002Z,5.80
2023-02-17T04:51:07.670Z,5.50
2023-02-17T04:53:35.793Z,7.00
2023-02-17T04:56:04.461Z,4.90
2023-02-17T04:58:32.945Z,5.70
2023-02-17T05:01:01.970Z,5.20
2023-02-17T05:03:30.952Z,6.20
2023-02-17T05:05:59.154Z,5.60
2023-02-17T05:08:27.455Z,4.90
2023-02-17T05:10:55.051Z,8.90
2023-02-17T05:13:23.066Z,5.90
2023-02-17T05:15:51.551Z,6.73
2023-02-17T05:18:19.225Z,6.57
2023-02-17T05:20:49.454Z,8.43
2023-02-17T05:23:17.117Z,10.37
2023-02-17T05:25:45.150Z,7.50
2023-02-17T05:28:13.200Z,5.93
2023-02-17T05:30:40.810Z,4.27
2023-02-17T05:33:08.804Z,5.43
2023-02-17T05:35:37.302Z,6.17
2023-02-17T05:38:06.830Z,9.93
2023-02-17T05:40:34.724Z,5.30
2023-02-17T05:43:02.702Z,6.27
2023-02-17T05:45:30.648Z,4.87
2023-02-17T05:47:58.384Z,6.93
2023-02-17T05:50:26.879Z,5.80
2023-02-17T05:52:54.900Z,6.93
2023-02-17T05:55:24.288Z,5.80
2023-02-17T05:57:52.365Z,6.43
2023-02-17T06:00:20.338Z,5.23
2023-02-17T06:02:48.442Z,7.60
2023-02-17T06:05:16.402Z,7.03
2023-02-17T06:07:44.049Z,6.60
2023-02-17T06:10:12.277Z,4.30
2023-02-17T06:12:41.681Z,4.57
2023-02-17T06:15:09.719Z,4.30
2023-02-17T06:17:37.819Z,6.40
2023-02-17T06:20:06.529Z,7.00
2023-02-17T06:22:34.983Z,5.50
2023-02-17T06:25:02.682Z,6.60
2023-02-17T06:27:31.607Z,5.23
2023-02-17T06:30:00.729Z,5.97
2023-02-17T06:32:29.365Z,5.10
2023-02-17T06:34:57.412Z,7.13
2023-02-17T06:37:25.500Z,6.00
2023-02-17T06:39:53.225Z,8.73
2023-02-17T06:42:21.556Z,4.37
2023-02-17T06:44:49.867Z,6.63
2023-02-17T06:47:18.807Z,5.90
2023-02-17T06:49:46.843Z,7.60
2023-02-17T06:52:14.496Z,11.27
2023-02-17T06:54:42.103Z,7.10
2023-02-17T06:57:09.740Z,12.43
2023-02-17T06:59:38.137Z,8.03
2023-02-17T07:02:05.982Z,14.70
2023-02-17T07:04:35.920Z,6.23
2023-02-17T07:07:04.051Z,8.50
2023-02-17T07:09:31.718Z,10.50
2023-02-17T07:12:00.583Z,6.57
2023-02-17T07:14:29.018Z,6.93
2023-02-17T07:16:56.948Z,7.27
2023-02-17T07:19:24.961Z,7.90
2023-02-17T07:21:53.931Z,13.20
2023-02-17T07:24:22.258Z,7.07
2023-02-17T07:26:50.346Z,7.57
2023-02-17T07:29:18.350Z,8.90
2023-02-17T07:31:46.012Z,8.73
2023-02-17T07:34:13.628Z,6.27
2023-02-17T07:36:42.001Z,11.73
2023-02-17T07:39:11.310Z,8.83
2023-02-17T07:41:39.311Z,7.63
2023-02-17T07:44:11.126Z,7.70
2023-02-17T07:46:41.113Z,10.03
2023-02-17T07:49:09.757Z,10.40
2023-02-17T07:51:37.766Z,8.23
2023-02-17T07:54:05.726Z,10.80
2023-02-17T07:56:35.126Z,8.90
2023-02-17T07:59:02.780Z,9.33
2023-02-17T08:01:30.770Z,9.07
2023-02-17T08:03:58.588Z,8.93
2023-02-17T08:06:28.242Z,9.10
2023-02-17T08:09:13.751Z,12.47
2023-02-17T08:12:02.033Z,7.70
2023-02-17T08:14:31.734Z,4.40
2023-02-17T08:16:59.390Z,3.90
2023-02-17T08:19:36.698Z,4.60
2023-02-17T08:22:14.403Z,2.87
2023-02-17T08:24:42.374Z,3.37
2023-02-17T08:27:11.894Z,5.00
2023-02-17T08:29:39.464Z,4.70
2023-02-17T08:32:08.019Z,6.73
2023-02-17T08:34:36.894Z,4.40
2023-02-17T08:37:05.766Z,1.90
2023-02-17T08:39:34.858Z,2.40
2023-02-17T08:42:04.155Z,2.80
2023-02-17T08:44:35.886Z,3.23
2023-02-17T08:47:06.391Z,3.63
2023-02-17T08:49:35.267Z,2.63
2023-02-17T08:52:03.361Z,6.93
2023-02-17T08:54:31.668Z,4.83
2023-02-17T08:56:59.919Z,2.40
2023-02-17T08:59:27.616Z,2.37
2023-02-17T09:01:57.542Z,5.53
2023-02-17T09:04:25.746Z,2.90
2023-02-17T09:06:56.949Z,4.63
2023-02-17T09:09:28.132Z,4.30
2023-02-17T09:11:57.196Z,4.00
2023-02-17T09:14:25.740Z,4.50
2023-02-17T09:16:54.845Z,2.20
2023-02-17T09:19:25.108Z,2.90
2023-02-17T09:21:53.732Z,3.70
2023-02-17T09:24:22.108Z,2.40
2023-02-17T09:26:49.887Z,5.07
2023-02-17T09:29:17.824Z,6.13
2023-02-17T09:31:46.269Z,2.43
2023-02-17T09:34:15.773Z,2.80
2023-02-17T09:36:45.776Z,3.70
2023-02-17T09:39:14.798Z,3.50
2023-02-17T09:41:45.578Z,2.50
2023-02-17T09:44:21.681Z,3.57
2023-02-17T09:47:02.010Z,3.63
2023-02-17T09:49:36.186Z,2.20
2023-02-17T09:52:11.416Z,1.63
2023-02-17T09:54:45.772Z,2.23
2023-02-17T09:57:20.087Z,2.17
2023-02-17T09:59:54.010Z,2.30
2023-02-17T10:02:28.692Z,1.70
2023-02-17T10:04:58.534Z,3.20
2023-02-17T10:07:31.064Z,2.83
2023-02-17T10:10:03.874Z,3.80
2023-02-17T10:12:37.640Z,2.30
2023-02-17T10:15:12.396Z,2.77
2023-02-17T10:17:47.199Z,6.97
2023-02-17T10:20:18.948Z,2.40
2023-02-17T10:22:53.215Z,3.87
2023-02-17T10:25:34.081Z,3.40
2023-02-17T10:28:09.576Z,3.83
2023-02-17T10:30:45.785Z,2.07
2023-02-17T10:33:19.791Z,3.23
2023-02-17T10:35:52.066Z,3.53
2023-02-17T10:38:34.222Z,2.27
2023-02-17T10:41:05.031Z,3.43
2023-02-17T10:43:35.144Z,2.93
2023-02-17T10:46:07.773Z,3.60
2023-02-17T10:48:39.226Z,3.30
2023-02-17T10:51:08.769Z,2.63
2023-02-17T10:53:41.039Z,2.97
2023-02-17T10:56:14.411Z,1.80
2023-02-17T10:58:52.050Z,4.70
2023-02-17T11:01:19.731Z,1.97
2023-02-17T11:03:47.838Z,2.97
2023-02-17T11:06:19.324Z,4.10
2023-02-17T11:08:53.408Z,1.63
2023-02-17T11:11:23.814Z,2.20
2023-02-17T11:14:11.383Z,3.10
2023-02-17T11:16:42.329Z,2.20
2023-02-17T11:19:23.326Z,2.17
2023-02-17T11:21:52.586Z,3.70
2023-02-17T11:24:21.910Z,1.57
2023-02-17T11:26:58.888Z,2.23
2023-02-17T11:29:27.574Z,1.57
